sensor_id;sensor_type;location;lat;lon;timestamp;P1;durP1;ratioP1;P2;durP2;ratioP2
25345;SDS011;13300;51.032;3.710;2022-07-12T00:01:43;6.60;;;4.13;;
25345;SDS011;13300;51.032;3.710;2022-07-12T00:04:09;5.00;;;4.50;;
25345;SDS011;13300;51.032;3.710;2022-07-12T00:06:34;6.20;;;4.47;;
25345;SDS011;13300;51.032;3.710;2022-07-12T00:09:00;5.85;;;4.60;;
25345;SDS011;13300;51.032;3.710;2022-07-12T00:11:26;6.88;;;5.03;;
25345;SDS011;13300;51.032;3.710;2022-07-12T00:13:52;6.43;;;4.80;;
25345;SDS011;13300;51.032;3.710;2022-07-12T00:16:18;6.40;;;5.30;;
25345;SDS011;13300;51.032;3.710;2022-07-12T00:18:43;5.65;;;5.03;;
25345;SDS011;13300;51.032;3.710;2022-07-12T00:21:09;7.35;;;4.80;;
25345;SDS011;13300;51.032;3.710;2022-07-12T00:23:35;5.97;;;5.13;;
25345;SDS011;13300;51.032;3.710;2022-07-12T00:26:01;5.80;;;5.13;;
25345;SDS011;13300;51.032;3.710;2022-07-12T00:28:32;6.15;;;4.97;;
25345;SDS011;13300;51.032;3.710;2022-07-12T00:30:58;6.53;;;4.70;;
25345;SDS011;13300;51.032;3.710;2022-07-12T00:33:25;5.93;;;4.65;;
25345;SDS011;13300;51.032;3.710;2022-07-12T00:35:51;9.48;;;4.57;;
25345;SDS011;13300;51.032;3.710;2022-07-12T00:38:16;4.95;;;4.45;;
25345;SDS011;13300;51.032;3.710;2022-07-12T00:40:42;5.40;;;4.47;;
25345;SDS011;13300;51.032;3.710;2022-07-12T00:43:08;13.43;;;5.03;;
25345;SDS011;13300;51.032;3.710;2022-07-12T00:45:34;5.45;;;4.22;;
25345;SDS011;13300;51.032;3.710;2022-07-12T00:48:00;6.95;;;5.07;;
25345;SDS011;13300;51.032;3.710;2022-07-12T00:50:27;5.55;;;4.93;;
25345;SDS011;13300;51.032;3.710;2022-07-12T00:52:53;6.68;;;4.68;;
25345;SDS011;13300;51.032;3.710;2022-07-12T00:55:21;6.47;;;4.10;;
25345;SDS011;13300;51.032;3.710;2022-07-12T00:57:47;7.00;;;4.40;;
25345;SDS011;13300;51.032;3.710;2022-07-12T01:00:14;5.47;;;4.40;;
25345;SDS011;13300;51.032;3.710;2022-07-12T01:02:52;5.25;;;4.18;;
25345;SDS011;13300;51.032;3.710;2022-07-12T01:05:22;8.13;;;4.30;;
25345;SDS011;13300;51.032;3.710;2022-07-12T01:07:48;6.00;;;4.30;;
25345;SDS011;13300;51.032;3.710;2022-07-12T01:10:15;5.95;;;4.50;;
25345;SDS011;13300;51.032;3.710;2022-07-12T01:12:41;5.97;;;4.55;;
25345;SDS011;13300;51.032;3.710;2022-07-12T01:15:08;5.05;;;4.28;;
25345;SDS011;13300;51.032;3.710;2022-07-12T01:17:34;6.55;;;4.70;;
25345;SDS011;13300;51.032;3.710;2022-07-12T01:20:00;9.07;;;5.10;;
25345;SDS011;13300;51.032;3.710;2022-07-12T01:22:27;6.05;;;4.65;;
25345;SDS011;13300;51.032;3.710;2022-07-12T01:24:56;8.07;;;6.40;;
25345;SDS011;13300;51.032;3.710;2022-07-12T01:27:22;6.80;;;5.30;;
25345;SDS011;13300;51.032;3.710;2022-07-12T01:29:48;7.20;;;5.00;;
25345;SDS011;13300;51.032;3.710;2022-07-12T01:32:14;6.18;;;5.28;;
25345;SDS011;13300;51.032;3.710;2022-07-12T01:34:59;6.95;;;5.10;;
25345;SDS011;13300;51.032;3.710;2022-07-12T01:37:30;5.75;;;5.20;;
25345;SDS011;13300;51.032;3.710;2022-07-12T01:39:59;9.40;;;5.28;;
25345;SDS011;13300;51.032;3.710;2022-07-12T01:42:27;6.22;;;4.88;;
25345;SDS011;13300;51.032;3.710;2022-07-12T01:44:54;6.70;;;5.30;;
25345;SDS011;13300;51.032;3.710;2022-07-12T01:47:21;8.80;;;4.85;;
25345;SDS011;13300;51.032;3.710;2022-07-12T01:49:47;6.70;;;5.28;;
25345;SDS011;13300;51.032;3.710;2022-07-12T01:52:13;10.88;;;5.22;;
25345;SDS011;13300;51.032;3.710;2022-07-12T01:54:40;7.70;;;5.00;;
25345;SDS011;13300;51.032;3.710;2022-07-12T01:57:06;5.32;;;4.80;;
25345;SDS011;13300;51.032;3.710;2022-07-12T01:59:32;7.25;;;4.70;;
25345;SDS011;13300;51.032;3.710;2022-07-12T02:01:58;9.40;;;5.43;;
25345;SDS011;13300;51.032;3.710;2022-07-12T02:04:25;7.97;;;4.22;;
25345;SDS011;13300;51.032;3.710;2022-07-12T02:06:51;6.40;;;4.40;;
25345;SDS011;13300;51.032;3.710;2022-07-12T02:09:17;5.45;;;4.85;;
25345;SDS011;13300;51.032;3.710;2022-07-12T02:11:43;5.57;;;4.95;;
25345;SDS011;13300;51.032;3.710;2022-07-12T02:14:10;7.15;;;6.00;;
25345;SDS011;13300;51.032;3.710;2022-07-12T02:16:40;8.87;;;5.10;;
25345;SDS011;13300;51.032;3.710;2022-07-12T02:19:06;7.72;;;5.30;;
25345;SDS011;13300;51.032;3.710;2022-07-12T02:21:33;8.32;;;5.13;;
25345;SDS011;13300;51.032;3.710;2022-07-12T02:23:59;6.07;;;5.47;;
25345;SDS011;13300;51.032;3.710;2022-07-12T02:26:25;9.88;;;6.03;;
25345;SDS011;13300;51.032;3.710;2022-07-12T02:28:51;5.80;;;5.20;;
25345;SDS011;13300;51.032;3.710;2022-07-12T02:31:17;6.00;;;5.30;;
25345;SDS011;13300;51.032;3.710;2022-07-12T02:33:42;8.45;;;6.18;;
25345;SDS011;13300;51.032;3.710;2022-07-12T02:36:08;8.27;;;5.20;;
25345;SDS011;13300;51.032;3.710;2022-07-12T02:38:34;8.45;;;5.65;;
25345;SDS011;13300;51.032;3.710;2022-07-12T02:41:00;8.32;;;5.40;;
25345;SDS011;13300;51.032;3.710;2022-07-12T02:43:29;6.15;;;5.13;;
25345;SDS011;13300;51.032;3.710;2022-07-12T02:46:03;6.75;;;5.32;;
25345;SDS011;13300;51.032;3.710;2022-07-12T02:48:29;5.70;;;5.00;;
25345;SDS011;13300;51.032;3.710;2022-07-12T02:50:54;5.90;;;5.10;;
25345;SDS011;13300;51.032;3.710;2022-07-12T02:53:20;6.53;;;4.85;;
25345;SDS011;13300;51.032;3.710;2022-07-12T02:55:46;6.22;;;5.03;;
25345;SDS011;13300;51.032;3.710;2022-07-12T02:58:11;5.28;;;4.75;;
25345;SDS011;13300;51.032;3.710;2022-07-12T03:00:37;5.55;;;4.60;;
25345;SDS011;13300;51.032;3.710;2022-07-12T03:03:04;5.95;;;4.82;;
25345;SDS011;13300;51.032;3.710;2022-07-12T03:05:31;7.63;;;5.45;;
25345;SDS011;13300;51.032;3.710;2022-07-12T03:07:57;8.90;;;6.93;;
25345;SDS011;13300;51.032;3.710;2022-07-12T03:10:23;6.65;;;5.53;;
25345;SDS011;13300;51.032;3.710;2022-07-12T03:12:48;10.93;;;6.57;;
25345;SDS011;13300;51.032;3.710;2022-07-12T03:15:14;7.72;;;5.97;;
25345;SDS011;13300;51.032;3.710;2022-07-12T03:17:40;6.45;;;5.78;;
25345;SDS011;13300;51.032;3.710;2022-07-12T03:20:05;6.45;;;5.75;;
25345;SDS011;13300;51.032;3.710;2022-07-12T03:22:34;6.90;;;5.68;;
25345;SDS011;13300;51.032;3.710;2022-07-12T03:24:59;7.60;;;5.38;;
25345;SDS011;13300;51.032;3.710;2022-07-12T03:27:25;6.25;;;5.53;;
25345;SDS011;13300;51.032;3.710;2022-07-12T03:29:51;7.88;;;5.57;;
25345;SDS011;13300;51.032;3.710;2022-07-12T03:32:16;7.50;;;5.20;;
25345;SDS011;13300;51.032;3.710;2022-07-12T03:34:42;6.38;;;5.45;;
25345;SDS011;13300;51.032;3.710;2022-07-12T03:37:07;7.57;;;5.68;;
25345;SDS011;13300;51.032;3.710;2022-07-12T03:39:33;7.82;;;5.38;;
25345;SDS011;13300;51.032;3.710;2022-07-12T03:41:59;6.32;;;5.60;;
25345;SDS011;13300;51.032;3.710;2022-07-12T03:44:24;10.57;;;5.43;;
25345;SDS011;13300;51.032;3.710;2022-07-12T03:46:50;9.85;;;6.05;;
25345;SDS011;13300;51.032;3.710;2022-07-12T03:49:16;9.05;;;6.28;;
25345;SDS011;13300;51.032;3.710;2022-07-12T03:51:41;9.25;;;5.93;;
25345;SDS011;13300;51.032;3.710;2022-07-12T03:54:07;8.68;;;5.70;;
25345;SDS011;13300;51.032;3.710;2022-07-12T03:56:34;7.32;;;5.95;;
25345;SDS011;13300;51.032;3.710;2022-07-12T03:59:18;7.50;;;6.15;;
25345;SDS011;13300;51.032;3.710;2022-07-12T04:01:44;7.68;;;5.60;;
25345;SDS011;13300;51.032;3.710;2022-07-12T04:04:09;9.05;;;5.80;;
25345;SDS011;13300;51.032;3.710;2022-07-12T04:06:35;8.80;;;5.68;;
25345;SDS011;13300;51.032;3.710;2022-07-12T04:09:01;10.30;;;6.32;;
25345;SDS011;13300;51.032;3.710;2022-07-12T04:11:27;9.05;;;5.50;;
25345;SDS011;13300;51.032;3.710;2022-07-12T04:13:53;7.82;;;5.38;;
25345;SDS011;13300;51.032;3.710;2022-07-12T04:16:19;6.78;;;5.28;;
25345;SDS011;13300;51.032;3.710;2022-07-12T04:18:45;7.13;;;5.80;;
25345;SDS011;13300;51.032;3.710;2022-07-12T04:21:10;8.73;;;6.07;;
25345;SDS011;13300;51.032;3.710;2022-07-12T04:23:37;7.97;;;6.22;;
25345;SDS011;13300;51.032;3.710;2022-07-12T04:26:02;9.80;;;7.13;;
25345;SDS011;13300;51.032;3.710;2022-07-12T04:28:28;9.20;;;7.00;;
25345;SDS011;13300;51.032;3.710;2022-07-12T04:30:54;8.77;;;6.82;;
25345;SDS011;13300;51.032;3.710;2022-07-12T04:33:19;11.48;;;7.20;;
25345;SDS011;13300;51.032;3.710;2022-07-12T04:35:45;7.43;;;6.47;;
25345;SDS011;13300;51.032;3.710;2022-07-12T04:38:11;8.93;;;7.70;;
25345;SDS011;13300;51.032;3.710;2022-07-12T04:40:37;10.02;;;7.40;;
25345;SDS011;13300;51.032;3.710;2022-07-12T04:43:02;10.63;;;7.07;;
25345;SDS011;13300;51.032;3.710;2022-07-12T04:45:28;9.38;;;7.60;;
25345;SDS011;13300;51.032;3.710;2022-07-12T04:47:54;12.70;;;7.03;;
25345;SDS011;13300;51.032;3.710;2022-07-12T04:50:19;8.50;;;7.20;;
25345;SDS011;13300;51.032;3.710;2022-07-12T04:52:45;13.02;;;8.10;;
25345;SDS011;13300;51.032;3.710;2022-07-12T04:55:10;10.40;;;7.45;;
25345;SDS011;13300;51.032;3.710;2022-07-12T04:57:36;10.52;;;7.57;;
25345;SDS011;13300;51.032;3.710;2022-07-12T05:00:05;9.85;;;7.55;;
25345;SDS011;13300;51.032;3.710;2022-07-12T05:02:32;9.02;;;6.78;;
25345;SDS011;13300;51.032;3.710;2022-07-12T05:04:58;10.40;;;7.07;;
25345;SDS011;13300;51.032;3.710;2022-07-12T05:07:24;11.70;;;7.30;;
25345;SDS011;13300;51.032;3.710;2022-07-12T05:09:50;9.65;;;7.10;;
25345;SDS011;13300;51.032;3.710;2022-07-12T05:12:16;9.63;;;6.85;;
25345;SDS011;13300;51.032;3.710;2022-07-12T05:14:45;12.73;;;7.30;;
25345;SDS011;13300;51.032;3.710;2022-07-12T05:17:10;9.70;;;5.95;;
25345;SDS011;13300;51.032;3.710;2022-07-12T05:19:36;9.40;;;7.10;;
25345;SDS011;13300;51.032;3.710;2022-07-12T05:22:02;9.25;;;6.85;;
25345;SDS011;13300;51.032;3.710;2022-07-12T05:24:29;9.00;;;6.40;;
25345;SDS011;13300;51.032;3.710;2022-07-12T05:26:55;7.82;;;6.47;;
25345;SDS011;13300;51.032;3.710;2022-07-12T05:29:20;8.15;;;5.68;;
25345;SDS011;13300;51.032;3.710;2022-07-12T05:31:46;9.20;;;6.00;;
25345;SDS011;13300;51.032;3.710;2022-07-12T05:34:12;13.30;;;6.10;;
25345;SDS011;13300;51.032;3.710;2022-07-12T05:36:38;10.00;;;6.47;;
25345;SDS011;13300;51.032;3.710;2022-07-12T05:39:04;8.80;;;6.30;;
25345;SDS011;13300;51.032;3.710;2022-07-12T05:41:30;8.00;;;6.43;;
25345;SDS011;13300;51.032;3.710;2022-07-12T05:43:56;7.32;;;6.20;;
25345;SDS011;13300;51.032;3.710;2022-07-12T05:46:21;6.45;;;5.57;;
25345;SDS011;13300;51.032;3.710;2022-07-12T05:48:47;7.38;;;6.40;;
25345;SDS011;13300;51.032;3.710;2022-07-12T05:51:13;8.23;;;5.90;;
25345;SDS011;13300;51.032;3.710;2022-07-12T05:53:58;9.32;;;6.28;;
25345;SDS011;13300;51.032;3.710;2022-07-12T05:56:23;8.60;;;6.60;;
25345;SDS011;13300;51.032;3.710;2022-07-12T05:58:49;6.70;;;6.00;;
25345;SDS011;13300;51.032;3.710;2022-07-12T06:01:15;9.40;;;6.15;;
25345;SDS011;13300;51.032;3.710;2022-07-12T06:03:42;8.27;;;6.32;;
25345;SDS011;13300;51.032;3.710;2022-07-12T06:06:08;11.48;;;6.82;;
25345;SDS011;13300;51.032;3.710;2022-07-12T06:08:33;12.15;;;6.72;;
25345;SDS011;13300;51.032;3.710;2022-07-12T06:10:59;8.73;;;6.28;;
25345;SDS011;13300;51.032;3.710;2022-07-12T06:13:25;7.95;;;5.88;;
25345;SDS011;13300;51.032;3.710;2022-07-12T06:15:51;10.77;;;7.00;;
25345;SDS011;13300;51.032;3.710;2022-07-12T06:18:16;10.55;;;6.40;;
25345;SDS011;13300;51.032;3.710;2022-07-12T06:23:20;10.45;;;6.53;;
25345;SDS011;13300;51.032;3.710;2022-07-12T06:25:46;10.50;;;6.35;;
25345;SDS011;13300;51.032;3.710;2022-07-12T06:28:11;12.50;;;6.40;;
25345;SDS011;13300;51.032;3.710;2022-07-12T06:30:38;13.68;;;6.90;;
25345;SDS011;13300;51.032;3.710;2022-07-12T06:33:03;10.98;;;5.63;;
25345;SDS011;13300;51.032;3.710;2022-07-12T06:35:29;9.30;;;5.78;;
25345;SDS011;13300;51.032;3.710;2022-07-12T06:37:55;8.57;;;6.32;;
25345;SDS011;13300;51.032;3.710;2022-07-12T06:40:21;12.95;;;6.95;;
25345;SDS011;13300;51.032;3.710;2022-07-12T06:42:48;18.88;;;7.05;;
25345;SDS011;13300;51.032;3.710;2022-07-12T06:45:17;13.93;;;7.38;;
25345;SDS011;13300;51.032;3.710;2022-07-12T06:47:46;8.90;;;5.95;;
25345;SDS011;13300;51.032;3.710;2022-07-12T06:50:12;8.95;;;5.97;;
25345;SDS011;13300;51.032;3.710;2022-07-12T06:52:46;8.93;;;5.38;;
25345;SDS011;13300;51.032;3.710;2022-07-12T06:55:14;7.03;;;5.50;;
25345;SDS011;13300;51.032;3.710;2022-07-12T06:57:41;9.18;;;5.85;;
25345;SDS011;13300;51.032;3.710;2022-07-12T07:00:06;8.63;;;6.25;;
25345;SDS011;13300;51.032;3.710;2022-07-12T07:02:33;11.20;;;6.25;;
25345;SDS011;13300;51.032;3.710;2022-07-12T07:05:02;8.82;;;5.80;;
25345;SDS011;13300;51.032;3.710;2022-07-12T07:07:36;8.90;;;6.00;;
25345;SDS011;13300;51.032;3.710;2022-07-12T07:10:04;9.35;;;6.45;;
25345;SDS011;13300;51.032;3.710;2022-07-12T07:12:30;10.05;;;7.10;;
25345;SDS011;13300;51.032;3.710;2022-07-12T07:14:56;10.57;;;6.60;;
25345;SDS011;13300;51.032;3.710;2022-07-12T07:17:25;9.73;;;6.45;;
25345;SDS011;13300;51.032;3.710;2022-07-12T07:19:51;10.23;;;5.43;;
25345;SDS011;13300;51.032;3.710;2022-07-12T07:22:17;8.45;;;5.82;;
25345;SDS011;13300;51.032;3.710;2022-07-12T07:24:45;8.50;;;6.00;;
25345;SDS011;13300;51.032;3.710;2022-07-12T07:27:11;11.80;;;5.78;;
25345;SDS011;13300;51.032;3.710;2022-07-12T07:29:37;8.55;;;5.22;;
25345;SDS011;13300;51.032;3.710;2022-07-12T07:32:21;6.80;;;4.97;;
25345;SDS011;13300;51.032;3.710;2022-07-12T07:34:47;6.60;;;4.90;;
25345;SDS011;13300;51.032;3.710;2022-07-12T07:37:15;7.68;;;5.22;;
25345;SDS011;13300;51.032;3.710;2022-07-12T07:39:41;7.05;;;5.10;;
25345;SDS011;13300;51.032;3.710;2022-07-12T07:42:06;10.32;;;5.10;;
25345;SDS011;13300;51.032;3.710;2022-07-12T07:44:32;5.72;;;4.85;;
25345;SDS011;13300;51.032;3.710;2022-07-12T07:47:01;6.55;;;5.22;;
25345;SDS011;13300;51.032;3.710;2022-07-12T07:49:29;7.85;;;4.72;;
25345;SDS011;13300;51.032;3.710;2022-07-12T07:51:55;9.40;;;5.00;;
25345;SDS011;13300;51.032;3.710;2022-07-12T07:54:21;7.13;;;4.80;;
25345;SDS011;13300;51.032;3.710;2022-07-12T07:56:49;6.80;;;4.85;;
25345;SDS011;13300;51.032;3.710;2022-07-12T07:59:15;7.18;;;5.13;;
25345;SDS011;13300;51.032;3.710;2022-07-12T08:01:40;6.18;;;4.95;;
25345;SDS011;13300;51.032;3.710;2022-07-12T08:04:19;6.40;;;5.25;;
25345;SDS011;13300;51.032;3.710;2022-07-12T08:06:48;5.68;;;4.93;;
25345;SDS011;13300;51.032;3.710;2022-07-12T08:09:17;7.50;;;5.00;;
25345;SDS011;13300;51.032;3.710;2022-07-12T08:12:03;5.25;;;4.10;;
25345;SDS011;13300;51.032;3.710;2022-07-12T08:14:30;5.05;;;4.50;;
25345;SDS011;13300;51.032;3.710;2022-07-12T08:16:55;4.93;;;4.05;;
25345;SDS011;13300;51.032;3.710;2022-07-12T08:19:23;5.45;;;4.68;;
25345;SDS011;13300;51.032;3.710;2022-07-12T08:21:49;9.02;;;4.68;;
25345;SDS011;13300;51.032;3.710;2022-07-12T08:24:15;7.07;;;4.88;;
25345;SDS011;13300;51.032;3.710;2022-07-12T08:26:41;6.93;;;4.55;;
25345;SDS011;13300;51.032;3.710;2022-07-12T08:29:14;6.47;;;4.95;;
25345;SDS011;13300;51.032;3.710;2022-07-12T08:31:40;5.22;;;4.72;;
25345;SDS011;13300;51.032;3.710;2022-07-12T08:34:07;5.28;;;4.65;;
25345;SDS011;13300;51.032;3.710;2022-07-12T08:36:34;6.63;;;4.95;;
25345;SDS011;13300;51.032;3.710;2022-07-12T08:39:00;6.82;;;4.00;;
25345;SDS011;13300;51.032;3.710;2022-07-12T08:41:26;5.25;;;4.15;;
25345;SDS011;13300;51.032;3.710;2022-07-12T08:43:53;5.35;;;4.13;;
25345;SDS011;13300;51.032;3.710;2022-07-12T08:46:45;4.22;;;3.83;;
25345;SDS011;13300;51.032;3.710;2022-07-12T08:49:12;5.13;;;3.97;;
25345;SDS011;13300;51.032;3.710;2022-07-12T08:51:40;4.78;;;3.42;;
25345;SDS011;13300;51.032;3.710;2022-07-12T08:54:08;5.30;;;3.60;;
25345;SDS011;13300;51.032;3.710;2022-07-12T08:56:36;3.90;;;3.50;;
25345;SDS011;13300;51.032;3.710;2022-07-12T09:01:43;5.25;;;3.85;;
25345;SDS011;13300;51.032;3.710;2022-07-12T09:07:13;5.50;;;4.00;;
25345;SDS011;13300;51.032;3.710;2022-07-12T09:09:40;4.65;;;3.70;;
25345;SDS011;13300;51.032;3.710;2022-07-12T09:12:06;5.60;;;3.55;;
25345;SDS011;13300;51.032;3.710;2022-07-12T09:14:32;5.43;;;3.00;;
25345;SDS011;13300;51.032;3.710;2022-07-12T09:17:02;4.63;;;3.63;;
25345;SDS011;13300;51.032;3.710;2022-07-12T09:19:34;4.15;;;3.65;;
25345;SDS011;13300;51.032;3.710;2022-07-12T09:22:00;4.40;;;3.60;;
25345;SDS011;13300;51.032;3.710;2022-07-12T09:24:26;4.72;;;3.85;;
25345;SDS011;13300;51.032;3.710;2022-07-12T09:27:13;5.38;;;3.90;;
25345;SDS011;13300;51.032;3.710;2022-07-12T09:29:51;5.55;;;3.50;;
25345;SDS011;13300;51.032;3.710;2022-07-12T09:32:17;5.15;;;3.53;;
25345;SDS011;13300;51.032;3.710;2022-07-12T09:35:13;5.30;;;3.15;;
25345;SDS011;13300;51.032;3.710;2022-07-12T09:38:07;4.75;;;3.50;;
25345;SDS011;13300;51.032;3.710;2022-07-12T09:40:37;5.82;;;3.20;;
25345;SDS011;13300;51.032;3.710;2022-07-12T09:43:03;3.42;;;2.80;;
25345;SDS011;13300;51.032;3.710;2022-07-12T09:45:30;7.57;;;2.83;;
25345;SDS011;13300;51.032;3.710;2022-07-12T09:47:56;4.40;;;3.13;;
25345;SDS011;13300;51.032;3.710;2022-07-12T09:50:23;4.38;;;3.00;;
25345;SDS011;13300;51.032;3.710;2022-07-12T09:52:48;4.13;;;3.00;;
25345;SDS011;13300;51.032;3.710;2022-07-12T09:55:17;2.83;;;2.30;;
25345;SDS011;13300;51.032;3.710;2022-07-12T09:57:49;4.53;;;2.70;;
25345;SDS011;13300;51.032;3.710;2022-07-12T10:00:26;4.80;;;2.38;;
25345;SDS011;13300;51.032;3.710;2022-07-12T10:02:53;2.35;;;2.15;;
25345;SDS011;13300;51.032;3.710;2022-07-12T10:05:21;3.13;;;2.72;;
25345;SDS011;13300;51.032;3.710;2022-07-12T10:07:58;6.22;;;2.80;;
25345;SDS011;13300;51.032;3.710;2022-07-12T10:10:25;3.05;;;2.42;;
25345;SDS011;13300;51.032;3.710;2022-07-12T10:12:53;3.00;;;2.50;;
25345;SDS011;13300;51.032;3.710;2022-07-12T10:15:20;5.15;;;2.65;;
25345;SDS011;13300;51.032;3.710;2022-07-12T10:17:54;3.33;;;2.53;;
25345;SDS011;13300;51.032;3.710;2022-07-12T10:20:21;3.47;;;2.40;;
25345;SDS011;13300;51.032;3.710;2022-07-12T10:25:48;5.50;;;3.70;;
25345;SDS011;13300;51.032;3.710;2022-07-12T10:29:03;3.63;;;2.80;;
25345;SDS011;13300;51.032;3.710;2022-07-12T10:31:38;8.15;;;3.13;;
25345;SDS011;13300;51.032;3.710;2022-07-12T10:34:12;2.97;;;2.67;;
25345;SDS011;13300;51.032;3.710;2022-07-12T10:39:20;4.38;;;2.65;;
25345;SDS011;13300;51.032;3.710;2022-07-12T10:44:34;4.35;;;2.33;;
25345;SDS011;13300;51.032;3.710;2022-07-12T10:47:01;4.90;;;2.30;;
25345;SDS011;13300;51.032;3.710;2022-07-12T10:49:29;3.88;;;2.22;;
25345;SDS011;13300;51.032;3.710;2022-07-12T10:59:34;10.02;;;2.47;;
25345;SDS011;13300;51.032;3.710;2022-07-12T11:02:03;4.35;;;3.10;;
25345;SDS011;13300;51.032;3.710;2022-07-12T11:04:35;4.40;;;2.40;;
25345;SDS011;13300;51.032;3.710;2022-07-12T11:07:10;5.40;;;2.78;;
25345;SDS011;13300;51.032;3.710;2022-07-12T11:09:36;2.80;;;2.05;;
25345;SDS011;13300;51.032;3.710;2022-07-12T11:12:17;6.57;;;2.45;;
25345;SDS011;13300;51.032;3.710;2022-07-12T11:14:58;4.70;;;2.33;;
25345;SDS011;13300;51.032;3.710;2022-07-12T11:17:25;2.15;;;1.92;;
25345;SDS011;13300;51.032;3.710;2022-07-12T11:20:05;4.10;;;2.17;;
25345;SDS011;13300;51.032;3.710;2022-07-12T11:22:46;2.10;;;1.65;;
25345;SDS011;13300;51.032;3.710;2022-07-12T11:25:14;1.75;;;1.63;;
25345;SDS011;13300;51.032;3.710;2022-07-12T11:27:40;3.25;;;1.92;;
25345;SDS011;13300;51.032;3.710;2022-07-12T11:30:07;2.42;;;1.63;;
25345;SDS011;13300;51.032;3.710;2022-07-12T11:32:37;3.58;;;1.88;;
25345;SDS011;13300;51.032;3.710;2022-07-12T11:35:16;2.97;;;2.20;;
25345;SDS011;13300;51.032;3.710;2022-07-12T11:37:47;2.20;;;2.00;;
25345;SDS011;13300;51.032;3.710;2022-07-12T11:40:21;2.72;;;2.00;;
25345;SDS011;13300;51.032;3.710;2022-07-12T11:42:52;2.67;;;1.92;;
25345;SDS011;13300;51.032;3.710;2022-07-12T11:45:23;2.33;;;1.95;;
25345;SDS011;13300;51.032;3.710;2022-07-12T11:47:49;2.63;;;2.42;;
25345;SDS011;13300;51.032;3.710;2022-07-12T11:50:16;2.85;;;2.10;;
25345;SDS011;13300;51.032;3.710;2022-07-12T11:52:43;3.28;;;2.03;;
25345;SDS011;13300;51.032;3.710;2022-07-12T11:55:09;2.60;;;2.40;;
25345;SDS011;13300;51.032;3.710;2022-07-12T11:57:35;3.80;;;2.22;;
25345;SDS011;13300;51.032;3.710;2022-07-12T12:00:17;2.22;;;2.00;;
25345;SDS011;13300;51.032;3.710;2022-07-12T12:02:44;3.10;;;2.00;;
25345;SDS011;13300;51.032;3.710;2022-07-12T12:05:11;3.42;;;1.90;;
25345;SDS011;13300;51.032;3.710;2022-07-12T12:07:37;2.38;;;1.65;;
25345;SDS011;13300;51.032;3.710;2022-07-12T12:10:09;2.80;;;1.88;;
25345;SDS011;13300;51.032;3.710;2022-07-12T12:15:19;2.20;;;1.67;;
25345;SDS011;13300;51.032;3.710;2022-07-12T12:17:51;65.10;;;7.75;;
25345;SDS011;13300;51.032;3.710;2022-07-12T12:20:25;7.78;;;2.72;;
25345;SDS011;13300;51.032;3.710;2022-07-12T12:22:53;2.70;;;1.63;;
25345;SDS011;13300;51.032;3.710;2022-07-12T12:25:21;1.95;;;1.75;;
25345;SDS011;13300;51.032;3.710;2022-07-12T12:27:49;3.63;;;1.65;;
25345;SDS011;13300;51.032;3.710;2022-07-12T12:30:19;1.90;;;1.70;;
25345;SDS011;13300;51.032;3.710;2022-07-12T12:35:21;3.97;;;2.10;;
25345;SDS011;13300;51.032;3.710;2022-07-12T12:37:58;4.13;;;2.70;;
25345;SDS011;13300;51.032;3.710;2022-07-12T12:40:27;2.80;;;2.40;;
25345;SDS011;13300;51.032;3.710;2022-07-12T12:43:10;4.80;;;2.30;;
25345;SDS011;13300;51.032;3.710;2022-07-12T12:46:00;3.47;;;1.75;;
25345;SDS011;13300;51.032;3.710;2022-07-12T12:48:26;3.85;;;1.67;;
25345;SDS011;13300;51.032;3.710;2022-07-12T12:50:54;2.15;;;1.48;;
25345;SDS011;13300;51.032;3.710;2022-07-12T12:53:39;4.25;;;1.77;;
25345;SDS011;13300;51.032;3.710;2022-07-12T12:56:06;4.53;;;1.77;;
25345;SDS011;13300;51.032;3.710;2022-07-12T12:58:37;5.43;;;1.80;;
25345;SDS011;13300;51.032;3.710;2022-07-12T13:01:03;2.53;;;1.88;;
25345;SDS011;13300;51.032;3.710;2022-07-12T13:03:30;3.78;;;2.03;;
25345;SDS011;13300;51.032;3.710;2022-07-12T13:05:56;2.67;;;2.00;;
25345;SDS011;13300;51.032;3.710;2022-07-12T13:08:23;2.38;;;1.38;;
25345;SDS011;13300;51.032;3.710;2022-07-12T13:10:50;4.03;;;1.70;;
25345;SDS011;13300;51.032;3.710;2022-07-12T13:13:36;2.47;;;1.15;;
25345;SDS011;13300;51.032;3.710;2022-07-12T13:16:02;1.25;;;1.15;;
25345;SDS011;13300;51.032;3.710;2022-07-12T13:18:28;1.90;;;1.38;;
25345;SDS011;13300;51.032;3.710;2022-07-12T13:20:54;4.50;;;1.38;;
25345;SDS011;13300;51.032;3.710;2022-07-12T13:23:20;4.32;;;1.60;;
25345;SDS011;13300;51.032;3.710;2022-07-12T13:25:46;2.58;;;1.48;;
25345;SDS011;13300;51.032;3.710;2022-07-12T13:28:11;1.25;;;1.15;;
25345;SDS011;13300;51.032;3.710;2022-07-12T13:30:37;1.70;;;1.20;;
25345;SDS011;13300;51.032;3.710;2022-07-12T13:33:03;1.77;;;1.60;;
25345;SDS011;13300;51.032;3.710;2022-07-12T13:35:29;4.18;;;1.63;;
25345;SDS011;13300;51.032;3.710;2022-07-12T13:37:55;2.53;;;1.38;;
25345;SDS011;13300;51.032;3.710;2022-07-12T13:40:21;3.25;;;2.22;;
25345;SDS011;13300;51.032;3.710;2022-07-12T13:42:48;5.65;;;1.83;;
25345;SDS011;13300;51.032;3.710;2022-07-12T13:47:47;1.60;;;1.30;;
25345;SDS011;13300;51.032;3.710;2022-07-12T13:50:16;1.60;;;1.50;;
25345;SDS011;13300;51.032;3.710;2022-07-12T13:52:42;3.58;;;1.50;;
25345;SDS011;13300;51.032;3.710;2022-07-12T13:55:10;2.85;;;1.77;;
25345;SDS011;13300;51.032;3.710;2022-07-12T13:57:37;2.70;;;1.63;;
25345;SDS011;13300;51.032;3.710;2022-07-12T14:00:05;3.72;;;2.00;;
25345;SDS011;13300;51.032;3.710;2022-07-12T14:02:37;3.05;;;2.00;;
25345;SDS011;13300;51.032;3.710;2022-07-12T14:05:04;4.20;;;1.60;;
25345;SDS011;13300;51.032;3.710;2022-07-12T14:07:31;2.20;;;1.83;;
25345;SDS011;13300;51.032;3.710;2022-07-12T14:09:57;3.88;;;1.70;;
25345;SDS011;13300;51.032;3.710;2022-07-12T14:12:24;5.32;;;1.80;;
25345;SDS011;13300;51.032;3.710;2022-07-12T14:14:50;1.77;;;1.50;;
25345;SDS011;13300;51.032;3.710;2022-07-12T14:17:34;2.67;;;1.48;;
25345;SDS011;13300;51.032;3.710;2022-07-12T14:20:00;1.80;;;1.70;;
25345;SDS011;13300;51.032;3.710;2022-07-12T14:22:27;2.97;;;1.75;;
25345;SDS011;13300;51.032;3.710;2022-07-12T14:24:52;3.03;;;2.00;;
25345;SDS011;13300;51.032;3.710;2022-07-12T14:27:18;2.35;;;1.70;;
25345;SDS011;13300;51.032;3.710;2022-07-12T14:29:44;2.25;;;1.60;;
25345;SDS011;13300;51.032;3.710;2022-07-12T14:32:11;2.72;;;1.65;;
25345;SDS011;13300;51.032;3.710;2022-07-12T14:34:43;2.72;;;1.83;;
25345;SDS011;13300;51.032;3.710;2022-07-12T14:37:13;2.05;;;1.85;;
25345;SDS011;13300;51.032;3.710;2022-07-12T14:39:38;1.83;;;1.70;;
25345;SDS011;13300;51.032;3.710;2022-07-12T14:42:04;2.03;;;1.70;;
25345;SDS011;13300;51.032;3.710;2022-07-12T14:44:30;1.98;;;1.70;;
25345;SDS011;13300;51.032;3.710;2022-07-12T14:46:56;2.28;;;1.58;;
25345;SDS011;13300;51.032;3.710;2022-07-12T14:49:21;3.78;;;1.85;;
25345;SDS011;13300;51.032;3.710;2022-07-12T14:51:47;3.15;;;1.80;;
25345;SDS011;13300;51.032;3.710;2022-07-12T14:54:14;2.42;;;1.30;;
25345;SDS011;13300;51.032;3.710;2022-07-12T14:56:40;3.03;;;1.65;;
25345;SDS011;13300;51.032;3.710;2022-07-12T14:59:06;1.88;;;1.67;;
25345;SDS011;13300;51.032;3.710;2022-07-12T15:01:32;1.98;;;1.50;;
25345;SDS011;13300;51.032;3.710;2022-07-12T15:03:58;1.83;;;1.73;;
25345;SDS011;13300;51.032;3.710;2022-07-12T15:06:24;2.28;;;1.70;;
25345;SDS011;13300;51.032;3.710;2022-07-12T15:08:51;1.90;;;1.52;;
25345;SDS011;13300;51.032;3.710;2022-07-12T15:11:20;2.73;;;1.80;;
25345;SDS011;13300;51.032;3.710;2022-07-12T15:13:46;1.95;;;1.65;;
25345;SDS011;13300;51.032;3.710;2022-07-12T15:16:12;3.47;;;1.70;;
25345;SDS011;13300;51.032;3.710;2022-07-12T15:18:38;2.65;;;1.80;;
25345;SDS011;13300;51.032;3.710;2022-07-12T15:21:04;2.95;;;1.90;;
25345;SDS011;13300;51.032;3.710;2022-07-12T15:23:30;2.75;;;1.73;;